createdAt,value
2019-03-30T00:00:27.684Z,14.60
2019-03-30T00:02:56.322Z,14.60
2019-03-30T00:05:24.353Z,14.60
2019-03-30T00:07:52.705Z,14.60
2019-03-30T00:10:20.645Z,14.70
2019-03-30T00:12:49.009Z,14.60
2019-03-30T00:15:17.492Z,14.60
2019-03-30T00:17:45.859Z,14.60
2019-03-30T00:20:14.267Z,14.60
2019-03-30T00:22:42.412Z,14.60
2019-03-30T00:25:10.628Z,14.60
2019-03-30T00:27:39.552Z,14.60
2019-03-30T00:30:09.435Z,14.60
2019-03-30T00:32:39.761Z,14.60
2019-03-30T00:35:14.713Z,14.60
2019-03-30T00:38:01.523Z,14.50
2019-03-30T00:40:29.974Z,14.60
2019-03-30T00:42:58.299Z,14.50
2019-03-30T00:45:26.334Z,14.50
2019-03-30T00:47:54.790Z,14.50
2019-03-30T00:50:22.884Z,14.50
2019-03-30T00:52:51.315Z,14.40
2019-03-30T00:55:19.856Z,14.40
2019-03-30T00:57:47.720Z,14.40
2019-03-30T01:00:16.332Z,14.40
2019-03-30T01:02:44.517Z,14.40
2019-03-30T01:05:12.421Z,14.40
2019-03-30T01:07:40.651Z,14.40
2019-03-30T01:10:09.283Z,14.40
2019-03-30T01:12:37.379Z,14.30
2019-03-30T01:15:07.151Z,14.30
2019-03-30T01:17:35.767Z,14.30
2019-03-30T01:20:04.765Z,14.30
2019-03-30T01:22:32.887Z,14.30
2019-03-30T01:25:01.019Z,14.30
2019-03-30T01:27:29.340Z,14.30
2019-03-30T01:29:57.373Z,14.20
2019-03-30T01:32:25.333Z,14.30
2019-03-30T01:34:53.704Z,14.30
2019-03-30T01:37:22.604Z,14.20
2019-03-30T01:39:50.678Z,14.20
2019-03-30T01:42:20.474Z,14.20
2019-03-30T01:44:49.060Z,14.20
2019-03-30T01:47:17.952Z,14.20
2019-03-30T01:49:46.472Z,14.20
2019-03-30T01:52:14.921Z,14.20
2019-03-30T01:54:43.605Z,14.20
2019-03-30T01:57:12.112Z,14.20
2019-03-30T01:59:40.158Z,14.20
2019-03-30T02:02:09.454Z,14.20
2019-03-30T02:04:37.931Z,14.10
2019-03-30T02:07:06.821Z,14.10
2019-03-30T02:09:35.512Z,14.10
2019-03-30T02:12:03.908Z,14.10
2019-03-30T02:14:31.912Z,14.10
2019-03-30T02:17:00.634Z,14.10
2019-03-30T02:19:28.749Z,14.10
2019-03-30T02:21:56.862Z,14.00
2019-03-30T02:24:25.659Z,14.00
2019-03-30T02:26:53.497Z,14.00
2019-03-30T02:29:21.419Z,14.00
2019-03-30T02:31:51.134Z,14.00
2019-03-30T02:34:19.723Z,14.00
2019-03-30T02:36:48.505Z,14.00
2019-03-30T02:39:17.098Z,14.00
2019-03-30T02:41:45.729Z,14.00
2019-03-30T02:44:14.265Z,14.00
2019-03-30T02:46:46.193Z,14.00
2019-03-30T02:49:15.414Z,13.90
2019-03-30T02:51:44.121Z,14.00
2019-03-30T02:54:13.645Z,14.00
2019-03-30T02:56:42.148Z,13.90
2019-03-30T02:59:11.009Z,13.90
2019-03-30T03:01:39.886Z,13.90
2019-03-30T03:04:08.695Z,13.90
2019-03-30T03:06:37.599Z,13.70
2019-03-30T03:09:08.725Z,13.90
2019-03-30T03:11:39.776Z,13.90
2019-03-30T03:14:11.007Z,13.80
2019-03-30T03:16:41.210Z,13.80
2019-03-30T03:19:10.840Z,13.80
2019-03-30T03:21:39.618Z,13.90
2019-03-30T03:24:08.706Z,13.80
2019-03-30T03:26:37.793Z,13.80
2019-03-30T03:29:06.266Z,13.80
2019-03-30T03:31:34.833Z,13.80
2019-03-30T03:34:02.985Z,13.80
2019-03-30T03:36:31.606Z,13.70
2019-03-30T03:39:00.395Z,13.80
2019-03-30T03:41:29.175Z,13.70
2019-03-30T03:43:58.687Z,13.70
2019-03-30T03:46:27.664Z,13.70
2019-03-30T03:48:56.374Z,13.70
2019-03-30T03:51:26.628Z,13.70
2019-03-30T03:53:55.550Z,13.70
2019-03-30T03:56:26.611Z,13.70
2019-03-30T03:58:57.067Z,13.70
2019-03-30T04:01:26.687Z,13.70
2019-03-30T04:03:58.960Z,13.60
2019-03-30T04:06:30.738Z,13.60
2019-03-30T04:09:01.135Z,13.60
2019-03-30T04:11:31.734Z,13.60
2019-03-30T04:14:01.474Z,13.60
2019-03-30T04:16:30.623Z,13.60
2019-03-30T04:18:59.041Z,13.60
2019-03-30T04:21:42.834Z,13.50
2019-03-30T04:23:58.327Z,13.50
2019-03-30T04:26:26.802Z,13.50
2019-03-30T04:28:55.102Z,13.50
2019-03-30T04:31:33.980Z,13.50
2019-03-30T04:34:02.627Z,13.50
2019-03-30T04:36:31.626Z,13.50
2019-03-30T04:39:00.192Z,13.50
2019-03-30T04:41:28.883Z,13.40
2019-03-30T04:43:58.090Z,13.40
2019-03-30T04:46:26.438Z,13.40
2019-03-30T04:48:55.009Z,13.40
2019-03-30T04:51:32.927Z,13.40
2019-03-30T04:54:03.561Z,13.40
2019-03-30T04:56:32.537Z,13.40
2019-03-30T04:59:01.085Z,13.40
2019-03-30T05:01:35.887Z,13.30
2019-03-30T05:04:06.166Z,13.40
2019-03-30T05:06:44.544Z,13.40
2019-03-30T05:09:23.635Z,13.40
2019-03-30T05:11:54.052Z,13.30
2019-03-30T05:14:27.365Z,13.10
2019-03-30T05:16:56.051Z,13.30
2019-03-30T05:19:25.873Z,13.30
2019-03-30T05:21:55.747Z,13.30
2019-03-30T05:24:24.329Z,13.30
2019-03-30T05:26:57.219Z,13.30
2019-03-30T05:29:29.490Z,13.30
2019-03-30T05:31:59.168Z,13.30
2019-03-30T05:34:28.353Z,13.30
2019-03-30T05:37:11.337Z,13.30
2019-03-30T05:39:56.357Z,13.30
2019-03-30T05:42:34.994Z,13.30
2019-03-30T05:45:11.959Z,13.20
2019-03-30T05:47:41.309Z,13.20
2019-03-30T05:50:17.485Z,13.30
2019-03-30T05:52:50.452Z,13.20
2019-03-30T05:55:27.255Z,13.20
2019-03-30T05:57:58.580Z,13.20
2019-03-30T06:00:39.778Z,13.20
2019-03-30T06:03:11.034Z,13.20
2019-03-30T06:05:45.840Z,13.30
2019-03-30T06:08:17.520Z,13.20
2019-03-30T06:10:46.054Z,13.30
2019-03-30T06:13:15.652Z,13.30
2019-03-30T06:15:44.367Z,13.20
2019-03-30T06:18:12.948Z,13.30
2019-03-30T06:20:41.210Z,13.10
2019-03-30T06:23:09.640Z,13.30
2019-03-30T06:25:40.553Z,13.30
2019-03-30T06:28:09.146Z,13.30
2019-03-30T06:30:37.423Z,13.30
2019-03-30T06:33:06.563Z,13.30
2019-03-30T06:35:35.705Z,13.30
2019-03-30T06:38:04.031Z,13.30
2019-03-30T06:40:32.604Z,13.30
2019-03-30T06:43:01.917Z,13.30
2019-03-30T06:45:30.244Z,13.30
2019-03-30T06:47:58.727Z,13.30
2019-03-30T06:50:27.346Z,13.30
2019-03-30T06:52:58.585Z,13.40
2019-03-30T06:55:26.014Z,13.30
2019-03-30T06:57:54.224Z,13.40
2019-03-30T07:00:32.658Z,13.60
2019-03-30T07:03:04.138Z,13.40
2019-03-30T07:05:40.993Z,13.40
2019-03-30T07:08:12.039Z,13.40
2019-03-30T07:10:41.038Z,13.40
2019-03-30T07:13:09.391Z,13.40
2019-03-30T07:15:44.210Z,13.40
2019-03-30T07:18:12.664Z,13.40
2019-03-30T07:20:40.949Z,13.40
2019-03-30T07:23:12.237Z,13.40
2019-03-30T07:25:39.458Z,13.50
2019-03-30T07:28:07.872Z,13.50
2019-03-30T07:30:35.888Z,13.70
2019-03-30T07:33:04.024Z,13.50
2019-03-30T07:35:32.187Z,13.50
2019-03-30T07:38:00.577Z,13.60
2019-03-30T07:40:29.227Z,13.50
2019-03-30T07:43:00.531Z,13.60
2019-03-30T07:45:29.004Z,13.60
2019-03-30T07:47:57.444Z,13.60
2019-03-30T07:50:26.071Z,13.60
2019-03-30T07:52:54.283Z,13.60
2019-03-30T07:55:22.937Z,13.60
2019-03-30T07:57:51.513Z,13.70
2019-03-30T08:00:20.109Z,13.70
2019-03-30T08:02:48.683Z,13.70
2019-03-30T08:05:16.977Z,13.80
2019-03-30T08:07:45.807Z,13.80
2019-03-30T08:10:14.339Z,13.80
2019-03-30T08:12:42.879Z,13.80
2019-03-30T08:15:11.809Z,13.80
2019-03-30T08:17:40.371Z,13.90
2019-03-30T08:20:09.013Z,13.90
2019-03-30T08:22:37.589Z,13.90
2019-03-30T08:25:06.026Z,13.90
2019-03-30T08:27:34.650Z,14.00
2019-03-30T08:30:03.968Z,14.00
2019-03-30T08:32:32.404Z,13.80
2019-03-30T08:35:01.329Z,14.10
2019-03-30T08:37:31.425Z,14.10
2019-03-30T08:40:00.942Z,14.10
2019-03-30T08:42:30.930Z,14.20
2019-03-30T08:44:59.690Z,14.20
2019-03-30T08:47:28.114Z,14.20
2019-03-30T08:49:56.796Z,14.20
2019-03-30T08:52:25.680Z,14.20
2019-03-30T08:54:53.954Z,14.30
2019-03-30T08:57:22.759Z,14.30
2019-03-30T08:59:50.904Z,14.30
2019-03-30T09:02:19.279Z,14.40
2019-03-30T09:04:48.083Z,14.40
2019-03-30T09:07:16.604Z,14.40
2019-03-30T09:09:44.943Z,14.60
2019-03-30T09:12:13.358Z,14.40
2019-03-30T09:14:41.786Z,14.50
2019-03-30T09:17:12.229Z,14.30
2019-03-30T09:19:40.676Z,14.30
2019-03-30T09:22:09.387Z,14.60
2019-03-30T09:24:37.581Z,14.60
2019-03-30T09:27:07.418Z,14.60
2019-03-30T09:29:36.502Z,14.60
2019-03-30T09:32:14.436Z,14.70
2019-03-30T09:34:35.079Z,14.70
2019-03-30T09:37:03.243Z,14.70
2019-03-30T09:39:32.192Z,14.80
2019-03-30T09:42:01.057Z,14.80
2019-03-30T09:44:31.247Z,14.80
2019-03-30T09:46:59.620Z,14.80
2019-03-30T09:49:28.570Z,14.90
2019-03-30T09:51:57.406Z,14.90
2019-03-30T09:54:25.361Z,14.90
2019-03-30T09:56:53.449Z,14.90
2019-03-30T09:59:22.225Z,15.00
2019-03-30T10:01:50.659Z,15.00
2019-03-30T10:04:19.408Z,15.00
2019-03-30T10:06:48.116Z,14.90
2019-03-30T10:09:16.538Z,15.10
2019-03-30T10:11:46.329Z,15.00
2019-03-30T10:14:15.045Z,15.20
2019-03-30T10:16:43.592Z,15.10
2019-03-30T10:19:12.639Z,15.20
2019-03-30T10:21:40.965Z,15.20
2019-03-30T10:24:09.429Z,15.20
2019-03-30T10:26:38.007Z,15.20
2019-03-30T10:29:07.002Z,15.50
2019-03-30T10:31:35.281Z,15.30
2019-03-30T10:34:03.710Z,15.30
2019-03-30T10:36:32.718Z,15.40
2019-03-30T10:39:01.085Z,15.40
2019-03-30T10:41:31.065Z,15.40
2019-03-30T10:43:59.821Z,15.40
2019-03-30T10:46:30.698Z,15.40
2019-03-30T10:48:59.182Z,15.50
2019-03-30T10:51:28.299Z,15.50
2019-03-30T10:53:57.063Z,15.50
2019-03-30T10:56:25.448Z,15.60
2019-03-30T10:58:53.975Z,15.60
2019-03-30T11:01:22.781Z,15.60
2019-03-30T11:03:51.337Z,15.70
2019-03-30T11:06:19.556Z,15.70
2019-03-30T11:08:47.734Z,15.70
2019-03-30T11:11:16.991Z,15.90
2019-03-30T11:13:45.330Z,15.80
2019-03-30T11:16:14.001Z,15.80
2019-03-30T11:18:45.919Z,15.80
2019-03-30T11:21:15.548Z,15.90
2019-03-30T11:23:43.750Z,15.90
2019-03-30T11:26:13.239Z,15.90
2019-03-30T11:28:42.221Z,16.00
2019-03-30T11:31:11.071Z,16.00
2019-03-30T11:33:40.251Z,16.00
2019-03-30T11:36:08.534Z,16.00
2019-03-30T11:38:37.247Z,16.10
2019-03-30T11:41:05.631Z,16.10
2019-03-30T11:43:35.486Z,16.10
2019-03-30T11:46:04.033Z,16.10
2019-03-30T11:48:37.251Z,16.20
2019-03-30T11:51:05.961Z,16.10
2019-03-30T11:53:34.883Z,16.20
2019-03-30T11:56:05.315Z,16.20
2019-03-30T11:58:33.604Z,16.30
2019-03-30T12:01:02.223Z,16.30
2019-03-30T12:03:33.329Z,16.30
2019-03-30T12:06:02.102Z,16.30
2019-03-30T12:08:31.632Z,16.40
2019-03-30T12:11:00.499Z,16.10
2019-03-30T12:13:28.786Z,16.40
2019-03-30T12:15:57.865Z,16.40
2019-03-30T12:18:26.942Z,16.50
2019-03-30T12:20:55.894Z,16.50
2019-03-30T12:23:24.121Z,16.60
2019-03-30T12:25:52.677Z,16.60
2019-03-30T12:28:20.899Z,16.60
2019-03-30T12:30:50.706Z,16.70
2019-03-30T12:33:19.371Z,16.70
2019-03-30T12:35:50.673Z,16.70
2019-03-30T12:38:19.328Z,16.80
2019-03-30T12:40:47.558Z,16.80
2019-03-30T12:43:15.876Z,16.80
2019-03-30T12:45:44.292Z,16.70
2019-03-30T12:48:12.740Z,16.90
2019-03-30T12:50:41.317Z,17.00
2019-03-30T12:53:09.942Z,17.00
2019-03-30T12:55:48.787Z,17.00
2019-03-30T12:58:09.870Z,17.00
2019-03-30T13:00:39.207Z,17.00
2019-03-30T13:03:07.617Z,17.00
2019-03-30T13:05:36.311Z,17.00
2019-03-30T13:08:04.987Z,17.00
2019-03-30T13:10:35.401Z,17.10
2019-03-30T13:13:04.115Z,17.10
2019-03-30T13:15:32.842Z,17.20
2019-03-30T13:18:01.487Z,17.30
2019-03-30T13:20:30.360Z,17.30
2019-03-30T13:22:58.560Z,17.40
2019-03-30T13:25:27.004Z,17.40
2019-03-30T13:27:55.829Z,17.50
2019-03-30T13:30:24.620Z,17.50
2019-03-30T13:32:53.529Z,17.50
2019-03-30T13:35:22.291Z,17.60
2019-03-30T13:37:50.787Z,17.60
2019-03-30T13:40:19.226Z,17.60
2019-03-30T13:42:47.934Z,17.70
2019-03-30T13:45:16.536Z,17.70
2019-03-30T13:47:45.148Z,17.70
2019-03-30T13:50:14.686Z,17.70
2019-03-30T13:52:43.709Z,17.70
2019-03-30T13:55:11.887Z,17.80
2019-03-30T13:57:41.140Z,17.80
2019-03-30T14:00:09.379Z,17.90
2019-03-30T14:02:38.334Z,17.90
2019-03-30T14:05:06.720Z,18.00
2019-03-30T14:07:37.823Z,18.00
2019-03-30T14:10:07.196Z,18.10
2019-03-30T14:12:35.508Z,18.10
2019-03-30T14:15:04.422Z,18.10
2019-03-30T14:17:33.707Z,18.10
2019-03-30T14:20:02.086Z,18.10
2019-03-30T14:22:31.004Z,18.10
2019-03-30T14:24:59.601Z,18.10
2019-03-30T14:27:28.378Z,18.10
2019-03-30T14:29:56.927Z,18.10
2019-03-30T14:32:25.669Z,18.10
2019-03-30T14:34:54.108Z,18.00
2019-03-30T14:37:22.558Z,18.00
2019-03-30T14:39:51.592Z,18.10
2019-03-30T14:42:20.353Z,18.00
2019-03-30T14:44:52.985Z,18.10
2019-03-30T14:47:26.637Z,18.10
2019-03-30T14:49:55.555Z,18.10
2019-03-30T14:52:25.182Z,18.10
2019-03-30T14:54:54.812Z,18.40
2019-03-30T14:57:23.411Z,18.20
2019-03-30T15:00:01.337Z,18.10
2019-03-30T15:02:29.948Z,18.20
2019-03-30T15:05:01.011Z,18.20
2019-03-30T15:07:31.015Z,18.40
2019-03-30T15:10:00.361Z,18.40
2019-03-30T15:12:31.055Z,18.30
2019-03-30T15:15:12.627Z,18.30
2019-03-30T15:17:43.482Z,18.20
2019-03-30T15:20:25.994Z,18.20
2019-03-30T15:23:06.649Z,18.30
2019-03-30T15:26:03.872Z,18.30
2019-03-30T15:28:30.499Z,18.40
2019-03-30T15:31:17.476Z,18.50
2019-03-30T15:33:56.096Z,18.50
2019-03-30T15:36:42.281Z,18.60
2019-03-30T15:39:18.917Z,18.60
2019-03-30T15:42:18.904Z,18.70
2019-03-30T15:44:57.232Z,18.70
2019-03-30T15:47:27.992Z,18.70
2019-03-30T15:50:13.728Z,18.80
2019-03-30T15:52:43.787Z,18.80
2019-03-30T15:55:11.894Z,18.80
2019-03-30T15:58:11.351Z,18.80
2019-03-30T16:00:41.684Z,18.70
2019-03-30T16:03:13.074Z,18.70
2019-03-30T16:05:45.339Z,18.70
2019-03-30T16:08:15.594Z,18.80
2019-03-30T16:10:52.137Z,18.70
2019-03-30T16:13:24.160Z,18.70
2019-03-30T16:16:11.191Z,18.70
2019-03-30T16:18:45.552Z,18.70
2019-03-30T16:21:18.770Z,18.70
2019-03-30T16:24:05.399Z,18.80
2019-03-30T16:27:08.211Z,18.90
2019-03-30T16:29:58.784Z,18.90
2019-03-30T16:32:35.413Z,18.90
2019-03-30T16:35:32.514Z,18.80
2019-03-30T16:38:32.711Z,18.80
2019-03-30T16:41:18.834Z,18.50
2019-03-30T16:44:02.852Z,18.80
2019-03-30T16:46:38.803Z,18.80
2019-03-30T16:49:31.798Z,18.80
2019-03-30T16:52:44.005Z,18.90
2019-03-30T16:55:20.297Z,18.90
2019-03-30T16:57:56.115Z,19.00
2019-03-30T17:00:58.054Z,18.70
2019-03-30T17:03:39.012Z,19.10
2019-03-30T17:06:10.060Z,18.80
2019-03-30T17:08:47.492Z,19.10
2019-03-30T17:11:29.285Z,19.10
2019-03-30T17:14:00.299Z,19.10
2019-03-30T17:16:54.125Z,19.10
2019-03-30T17:19:41.058Z,19.00
2019-03-30T17:22:12.186Z,19.00
2019-03-30T17:24:40.653Z,19.00
2019-03-30T17:27:08.831Z,18.90
2019-03-30T17:29:37.335Z,18.90
2019-03-30T17:32:05.645Z,18.80
2019-03-30T17:34:34.498Z,18.80
2019-03-30T17:37:03.236Z,18.80
2019-03-30T17:39:35.135Z,18.70
2019-03-30T17:42:03.804Z,18.70
2019-03-30T17:44:33.008Z,18.60
2019-03-30T17:47:01.594Z,18.60
2019-03-30T17:49:31.060Z,18.60
2019-03-30T17:51:59.471Z,18.30
2019-03-30T17:54:32.605Z,18.60
2019-03-30T17:57:00.919Z,18.60
2019-03-30T17:59:29.682Z,18.50
2019-03-30T18:01:57.730Z,18.50
2019-03-30T18:04:25.948Z,18.40
2019-03-30T18:06:54.349Z,18.20
2019-03-30T18:09:23.020Z,18.40
2019-03-30T18:11:51.625Z,18.40
2019-03-30T18:14:20.620Z,18.30
2019-03-30T18:16:49.220Z,18.30
2019-03-30T18:19:17.968Z,18.30
2019-03-30T18:21:48.187Z,18.30
2019-03-30T18:24:17.592Z,18.30
2019-03-30T18:26:45.932Z,18.00
2019-03-30T18:29:14.738Z,18.30
2019-03-30T18:31:44.809Z,18.20
2019-03-30T18:34:14.617Z,18.20
2019-03-30T18:36:46.092Z,18.20
2019-03-30T18:39:14.887Z,18.10
2019-03-30T18:41:43.406Z,18.10
2019-03-30T18:44:12.040Z,18.10
2019-03-30T18:46:40.553Z,18.10
2019-03-30T18:49:09.537Z,18.10
2019-03-30T18:51:40.527Z,18.10
2019-03-30T18:54:09.361Z,18.00
2019-03-30T18:56:38.582Z,18.00
2019-03-30T18:59:06.986Z,18.00
2019-03-30T19:01:35.336Z,18.00
2019-03-30T19:04:04.051Z,17.90
2019-03-30T19:06:32.219Z,18.00
2019-03-30T19:09:01.417Z,17.90
2019-03-30T19:11:30.278Z,17.90
2019-03-30T19:13:58.816Z,17.90
2019-03-30T19:16:26.954Z,17.80
2019-03-30T19:18:55.312Z,17.80
2019-03-30T19:21:23.528Z,17.80
2019-03-30T19:23:51.668Z,17.80
2019-03-30T19:26:20.019Z,17.80
2019-03-30T19:28:56.044Z,17.80
2019-03-30T19:31:17.968Z,17.70
2019-03-30T19:33:46.938Z,17.70
2019-03-30T19:36:18.088Z,17.70
2019-03-30T19:38:46.446Z,17.70
2019-03-30T19:41:15.039Z,17.70
2019-03-30T19:43:43.596Z,17.70
2019-03-30T19:46:12.007Z,17.70
2019-03-30T19:48:41.712Z,17.60
2019-03-30T19:51:12.772Z,17.60
2019-03-30T19:53:41.914Z,17.60
2019-03-30T19:56:10.216Z,17.60
2019-03-30T19:58:38.498Z,17.50
2019-03-30T20:01:10.191Z,17.50
2019-03-30T20:03:39.726Z,17.50
2019-03-30T20:06:08.280Z,17.50
2019-03-30T20:08:36.463Z,17.50
2019-03-30T20:11:05.338Z,17.40
2019-03-30T20:13:34.319Z,17.40
2019-03-30T20:16:02.783Z,17.40
2019-03-30T20:18:31.174Z,17.60
2019-03-30T20:20:59.746Z,17.40
2019-03-30T20:23:27.970Z,17.30
2019-03-30T20:25:56.303Z,17.30
2019-03-30T20:28:24.857Z,17.40
2019-03-30T20:30:53.572Z,17.30
2019-03-30T20:33:23.355Z,17.30
2019-03-30T20:35:52.016Z,17.30
2019-03-30T20:38:24.252Z,17.30
2019-03-30T20:40:53.496Z,17.30
2019-03-30T20:43:22.394Z,17.20
2019-03-30T20:45:51.029Z,17.30
2019-03-30T20:48:19.202Z,17.20
2019-03-30T20:50:47.873Z,17.20
2019-03-30T20:53:16.814Z,17.20
2019-03-30T20:55:45.296Z,17.20
2019-03-30T20:58:13.640Z,17.20
2019-03-30T21:00:42.952Z,17.20
2019-03-30T21:03:11.508Z,17.20
2019-03-30T21:05:39.984Z,17.20
2019-03-30T21:08:08.193Z,17.10
2019-03-30T21:10:36.510Z,17.10
2019-03-30T21:13:05.081Z,17.10
2019-03-30T21:15:33.626Z,17.10
2019-03-30T21:18:02.155Z,17.10
2019-03-30T21:20:30.502Z,17.10
2019-03-30T21:23:01.129Z,17.10
2019-03-30T21:25:29.796Z,17.00
2019-03-30T21:27:58.015Z,17.00
2019-03-30T21:30:26.165Z,17.00
2019-03-30T21:32:55.270Z,17.00
2019-03-30T21:35:23.504Z,17.00
2019-03-30T21:37:51.758Z,17.00
2019-03-30T21:40:19.981Z,17.00
2019-03-30T21:42:49.013Z,17.00
2019-03-30T21:45:17.388Z,16.90
2019-03-30T21:47:46.918Z,16.90
2019-03-30T21:50:15.756Z,16.90
2019-03-30T21:52:44.106Z,16.90
2019-03-30T21:55:12.985Z,16.80
2019-03-30T21:57:41.791Z,16.80
2019-03-30T22:00:11.811Z,16.80
2019-03-30T22:02:40.496Z,16.80
2019-03-30T22:05:09.022Z,16.80
2019-03-30T22:07:37.758Z,16.80
2019-03-30T22:10:09.102Z,16.70
2019-03-30T22:12:40.402Z,16.70
2019-03-30T22:15:09.551Z,16.70
2019-03-30T22:17:38.333Z,16.70
2019-03-30T22:20:06.911Z,16.70
2019-03-30T22:22:35.605Z,16.60
2019-03-30T22:25:04.082Z,16.60
2019-03-30T22:27:32.562Z,16.60
2019-03-30T22:30:01.046Z,16.60
2019-03-30T22:32:29.376Z,16.40
2019-03-30T22:34:58.139Z,16.50
2019-03-30T22:37:26.476Z,16.60
2019-03-30T22:39:54.593Z,16.60
2019-03-30T22:42:22.635Z,16.50
2019-03-30T22:44:50.965Z,16.50
2019-03-30T22:47:19.135Z,16.50
2019-03-30T22:49:47.620Z,16.40
2019-03-30T22:52:15.763Z,16.50
2019-03-30T22:54:44.827Z,16.40
2019-03-30T22:57:13.566Z,16.10
2019-03-30T22:59:41.635Z,16.40
2019-03-30T23:02:09.670Z,16.40
2019-03-30T23:04:38.060Z,16.40
2019-03-30T23:07:07.111Z,16.40
2019-03-30T23:09:35.759Z,16.30
2019-03-30T23:12:04.657Z,16.30
2019-03-30T23:14:33.100Z,16.30
2019-03-30T23:17:02.123Z,16.20
2019-03-30T23:19:30.890Z,16.30
2019-03-30T23:21:59.250Z,16.30
2019-03-30T23:24:27.623Z,16.20
2019-03-30T23:26:56.138Z,16.20
2019-03-30T23:29:24.050Z,16.20
2019-03-30T23:31:52.568Z,16.20
2019-03-30T23:34:21.032Z,16.20
2019-03-30T23:36:49.690Z,16.20
2019-03-30T23:39:18.034Z,16.20
2019-03-30T23:41:46.858Z,16.10
2019-03-30T23:44:14.926Z,16.10
2019-03-30T23:46:43.896Z,16.10
2019-03-30T23:49:12.534Z,16.10
2019-03-30T23:51:41.019Z,16.10
2019-03-30T23:54:13.532Z,16.10
2019-03-30T23:56:42.289Z,16.10
2019-03-30T23:59:10.283Z,16.20
